»·PEaware :: SWA1091 KRNO-KLAX

SWA1091 :: KRNO-KLAX

FLIGHT INFORMATION

Flight Status: Arrived
Operator:
Southwest Airlines
More flights by this operator :: More flights under this callsign
Pilot: Ryan B. (8502)
Aircraft: BOEING 737-400
(B734)
More flights by this aircraft type
Origin: KRNO Reno/Tahoe Intl
United States
Destination: KLAX Los Angeles Intl
United States
More flights between these airports :: More routes between these airports
Route: ZEFFR6 DARBI FRA J7 REBRG IRNMN1
File this flight plan on PilotEdge
Remarks:
Altitude:
(Current/Filed)
35,000ft
Speed:
(Current/Filed)
444kts
Departed: 29-Oct-17 05:44 PM
Arrived: 29-Oct-17 06:51 PM
Distance/Time
Traveled:
339nm/1:07
Distance/Time
To Go:
Arrived

Flight Plot

Page will automatically refresh every two minutes.

Flight plan parsing failed; only flown route is shown


Map Options




Map Legend


Flown Route
Filed Route
Departure Airport
Arrival Airport
Navaid (VOR, NDB)
Fix

Horizontal Profiles

Position Reports

Time Latitude Longitude Heading Altitude Ground
Speed
29-Oct-17 17:36 39.506618 -119.773543 347 4414ft 0kts
29-Oct-17 17:37 39.506618 -119.773543 347 4414ft 0kts
29-Oct-17 17:38 39.506618 -119.773543 347 4413ft 0kts
29-Oct-17 17:39 39.506618 -119.773543 347 4413ft 0kts
29-Oct-17 17:40 39.506618 -119.773543 347 4413ft 0kts
29-Oct-17 17:41 39.506618 -119.773543 347 4413ft 0kts
29-Oct-17 17:42 39.506618 -119.773543 347 4414ft 0kts
29-Oct-17 17:43 39.506501 -119.773551 5 4414ft 2kts
29-Oct-17 17:44 39.505976 -119.773779 60 4414ft 2kts
29-Oct-17 17:45 39.505917 -119.774068 91 4415ft 0kts
29-Oct-17 17:46 39.505912 -119.773219 90 4413ft 12kts
29-Oct-17 17:47 39.509230 -119.771480 354 4413ft 18kts
29-Oct-17 17:48 39.513542 -119.771362 15 4419ft 9kts
29-Oct-17 17:49 39.511285 -119.769239 178 4415ft 62kts
29-Oct-17 17:50 39.468996 -119.769465 180 4925ft 194kts
29-Oct-17 17:51 39.414580 -119.769747 180 6967ft 203kts
29-Oct-17 17:52 39.353556 -119.769814 181 8718ft 246kts
29-Oct-17 17:53 39.279302 -119.768421 179 10756ft 292kts
29-Oct-17 17:54 39.190414 -119.764944 179 11963ft 354kts
29-Oct-17 17:55 39.086820 -119.761000 179 13460ft 388kts
29-Oct-17 17:56 38.977938 -119.756712 178 15325ft 401kts
29-Oct-17 17:57 38.897470 -119.753580 177 17189ft 393kts
29-Oct-17 17:58 38.893673 -119.753430 177 17242ft 394kts
29-Oct-17 17:59 38.783978 -119.749353 177 18937ft 403kts
29-Oct-17 18:00 38.672327 -119.745172 177 20568ft 411kts
29-Oct-17 18:01 38.559466 -119.740950 177 22105ft 417kts
29-Oct-17 18:02 38.443736 -119.736628 177 23496ft 424kts
29-Oct-17 18:03 38.325489 -119.732231 177 24782ft 431kts
29-Oct-17 18:04 38.206131 -119.720739 173 25955ft 437kts
29-Oct-17 18:05 38.085347 -119.706751 174 27036ft 443kts
29-Oct-17 18:06 37.962621 -119.692644 174 28047ft 445kts
29-Oct-17 18:07 37.861840 -119.681124 174 28962ft 443kts
29-Oct-17 18:08 37.720983 -119.665014 174 30239ft 437kts
29-Oct-17 18:09 37.601164 -119.651342 174 31033ft 435kts
29-Oct-17 18:10 37.501661 -119.640024 174 31646ft 433kts
29-Oct-17 18:11 37.383634 -119.626633 174 32230ft 431kts
29-Oct-17 18:12 37.245850 -119.611082 174 32786ft 429kts
29-Oct-17 18:13 37.147463 -119.600031 174 33105ft 428kts
29-Oct-17 18:14 37.028906 -119.596579 180 33403ft 428kts
29-Oct-17 18:15 36.911774 -119.598843 180 33708ft 427kts
29-Oct-17 18:16 36.796257 -119.600882 180 33961ft 426kts
29-Oct-17 18:17 36.678808 -119.602870 180 34215ft 425kts
29-Oct-17 18:18 36.561675 -119.604871 180 34401ft 424kts
29-Oct-17 18:19 36.444439 -119.606879 180 34564ft 424kts
29-Oct-17 18:20 36.327165 -119.608858 180 34689ft 423kts
29-Oct-17 18:21 36.210312 -119.610820 180 34786ft 423kts
29-Oct-17 18:22 36.093052 -119.612796 180 34856ft 423kts
29-Oct-17 18:23 35.976233 -119.616458 191 34869ft 421kts
29-Oct-17 18:24 35.867078 -119.657788 195 34845ft 421kts
29-Oct-17 18:25 35.755477 -119.699703 195 34870ft 421kts
29-Oct-17 18:26 35.643920 -119.738988 190 34871ft 420kts
29-Oct-17 18:27 35.530473 -119.765962 190 34869ft 420kts
29-Oct-17 18:28 35.416459 -119.793545 190 34874ft 420kts
29-Oct-17 18:29 35.302825 -119.819250 178 34881ft 418kts
29-Oct-17 18:30 35.206505 -119.748577 142 34695ft 421kts
29-Oct-17 18:31 35.113909 -119.660746 143 32530ft 419kts
29-Oct-17 18:32 35.020080 -119.573351 143 30570ft 431kts
29-Oct-17 18:33 34.924370 -119.484482 145 28964ft 440kts
29-Oct-17 18:34 34.825172 -119.395876 146 28836ft 450kts
29-Oct-17 18:35 34.725448 -119.306997 147 26787ft 446kts
29-Oct-17 18:36 34.627242 -119.221452 147 24325ft 429kts
29-Oct-17 18:37 34.533101 -119.139607 146 22082ft 409kts
29-Oct-17 18:38 34.446494 -119.062917 146 20140ft 385kts
29-Oct-17 18:39 34.363234 -118.990726 146 18375ft 364kts
29-Oct-17 18:40 34.283665 -118.919405 144 16227ft 355kts
29-Oct-17 18:41 34.205119 -118.847582 143 13602ft 362kts
29-Oct-17 18:42 34.132892 -118.775905 138 13014ft 303kts
29-Oct-17 18:43 34.072871 -118.710498 138 11467ft 298kts
29-Oct-17 18:44 34.026208 -118.630550 96 9201ft 308kts
29-Oct-17 18:45 34.017692 -118.536211 96 8754ft 279kts
29-Oct-17 18:46 34.010874 -118.454169 80 7932ft 247kts
29-Oct-17 18:47 34.023220 -118.381833 78 6855ft 236kts
29-Oct-17 18:48 34.034858 -118.315225 79 5630ft 232kts
29-Oct-17 18:49 34.046335 -118.250498 80 4352ft 227kts
29-Oct-17 18:50 34.017185 -118.206266 177 3405ft 186kts
29-Oct-17 18:51 33.982448 -118.235173 234 2562ft 186kts
29-Oct-17 18:52 33.964808 -118.279882 257 2179ft 178kts
29-Oct-17 18:53 33.959201 -118.333817 261 1478ft 170kts
29-Oct-17 18:54 33.953849 -118.384586 263 523ft 153kts
29-Oct-17 18:55 33.949659 -118.424597 250 115ft 44kts
29-Oct-17 18:56 33.948476 -118.426858 224 112ft 5kts

Navigation Log

Ident Type
Flight plan parsing failed, navigation log unavailable